createdAt,value
2023-03-02T00:00:07.756Z,1002.36
2023-03-02T00:00:18.031Z,1002.36
2023-03-02T00:00:28.237Z,1002.36
2023-03-02T00:00:38.483Z,1002.36
2023-03-02T00:00:48.753Z,1002.36
2023-03-02T00:00:58.983Z,1002.36
2023-03-02T00:01:09.223Z,1002.37
2023-03-02T00:01:19.468Z,1002.37
2023-03-02T00:01:29.721Z,1002.37
2023-03-02T00:01:39.977Z,1002.38
2023-03-02T00:01:50.212Z,1002.38
2023-03-02T00:02:00.462Z,1002.38
2023-03-02T00:02:10.864Z,1002.38
2023-03-02T00:02:21.169Z,1002.39
2023-03-02T00:02:31.467Z,1002.39
2023-03-02T00:02:41.792Z,1002.39
2023-03-02T00:02:52.133Z,1002.39
2023-03-02T00:03:02.428Z,1002.39
2023-03-02T00:03:12.664Z,1002.40
2023-03-02T00:03:22.997Z,1002.40
2023-03-02T00:03:33.311Z,1002.40
2023-03-02T00:03:43.616Z,1002.40
2023-03-02T00:03:53.987Z,1002.40
2023-03-02T00:04:04.296Z,1002.40
2023-03-02T00:04:14.552Z,1002.40
2023-03-02T00:04:24.799Z,1002.40
2023-03-02T00:04:35.044Z,1002.40
2023-03-02T00:04:45.283Z,1002.40
2023-03-02T00:04:55.534Z,1002.40
2023-03-02T00:05:05.790Z,1002.40
2023-03-02T00:05:16.045Z,1002.40
2023-03-02T00:05:26.278Z,1002.41
2023-03-02T00:05:36.521Z,1002.41
2023-03-02T00:05:46.784Z,1002.41
2023-03-02T00:05:57.008Z,1002.42
2023-03-02T00:06:07.256Z,1002.42
2023-03-02T00:06:17.514Z,1002.42
2023-03-02T00:06:27.771Z,1002.42
2023-03-02T00:06:37.993Z,1002.42
2023-03-02T00:06:48.248Z,1002.42
2023-03-02T00:06:58.497Z,1002.42
2023-03-02T00:07:08.745Z,1002.42
2023-03-02T00:07:18.981Z,1002.42
2023-03-02T00:07:29.241Z,1002.43
2023-03-02T00:07:39.473Z,1002.43
2023-03-02T00:07:49.742Z,1002.43
2023-03-02T00:07:59.988Z,1002.43
2023-03-02T00:08:10.237Z,1002.43
2023-03-02T00:08:20.484Z,1002.43
2023-03-02T00:08:30.728Z,1002.43
2023-03-02T00:08:40.983Z,1002.43
2023-03-02T00:08:51.222Z,1002.43
2023-03-02T00:09:01.464Z,1002.43
2023-03-02T00:09:11.714Z,1002.43
2023-03-02T00:09:21.955Z,1002.43
2023-03-02T00:09:32.204Z,1002.43
2023-03-02T00:09:42.464Z,1002.44
2023-03-02T00:09:52.706Z,1002.44
2023-03-02T00:10:02.947Z,1002.44
2023-03-02T00:10:13.209Z,1002.44
2023-03-02T00:10:23.457Z,1002.44
2023-03-02T00:10:33.699Z,1002.44
2023-03-02T00:10:43.949Z,1002.44
2023-03-02T00:10:54.187Z,1002.44
2023-03-02T00:11:04.457Z,1002.44
2023-03-02T00:11:14.677Z,1002.44
2023-03-02T00:11:24.921Z,1002.45
2023-03-02T00:11:35.166Z,1002.45
2023-03-02T00:11:45.429Z,1002.45
2023-03-02T00:11:55.674Z,1002.45
2023-03-02T00:12:05.920Z,1002.45
2023-03-02T00:12:16.158Z,1002.45
2023-03-02T00:12:26.413Z,1002.46
2023-03-02T00:12:36.652Z,1002.46
2023-03-02T00:12:46.907Z,1002.46
2023-03-02T00:12:57.148Z,1002.46
2023-03-02T00:13:07.411Z,1002.46
2023-03-02T00:13:17.708Z,1002.46
2023-03-02T00:13:27.959Z,1002.46
2023-03-02T00:13:38.218Z,1002.46
2023-03-02T00:13:48.446Z,1002.46
2023-03-02T00:13:58.703Z,1002.46
2023-03-02T00:14:08.944Z,1002.46
2023-03-02T00:14:19.205Z,1002.46
2023-03-02T00:14:29.463Z,1002.46
2023-03-02T00:14:39.708Z,1002.46
2023-03-02T00:14:49.959Z,1002.46
2023-03-02T00:15:00.199Z,1002.46
2023-03-02T00:15:10.481Z,1002.47
2023-03-02T00:15:20.703Z,1002.47
2023-03-02T00:15:31.008Z,1002.47
2023-03-02T00:15:41.276Z,1002.47
2023-03-02T00:15:51.642Z,1002.47
2023-03-02T00:16:01.962Z,1002.47
2023-03-02T00:16:12.250Z,1002.47
2023-03-02T00:16:22.540Z,1002.47
2023-03-02T00:16:33.216Z,1002.47
2023-03-02T00:16:43.161Z,1002.46
2023-03-02T00:16:53.412Z,1002.47
2023-03-02T00:17:03.657Z,1002.46
2023-03-02T00:17:13.898Z,1002.46
2023-03-02T00:17:24.145Z,1002.46
2023-03-02T00:17:34.412Z,1002.46
2023-03-02T00:17:44.656Z,1002.46
2023-03-02T00:17:54.889Z,1002.46
2023-03-02T00:18:05.142Z,1002.46
2023-03-02T00:18:15.382Z,1002.46
2023-03-02T00:18:25.652Z,1002.46
2023-03-02T00:18:35.894Z,1002.45
2023-03-02T00:18:46.140Z,1002.45
2023-03-02T00:18:56.399Z,1002.45
2023-03-02T00:19:06.656Z,1002.45
2023-03-02T00:19:16.919Z,1002.45
2023-03-02T00:19:27.134Z,1002.45
2023-03-02T00:19:37.381Z,1002.44
2023-03-02T00:19:47.636Z,1002.44
2023-03-02T00:19:57.865Z,1002.44
2023-03-02T00:20:08.117Z,1002.43
2023-03-02T00:20:18.360Z,1002.43
2023-03-02T00:20:28.623Z,1002.42
2023-03-02T00:20:38.867Z,1002.42
2023-03-02T00:20:49.128Z,1002.42
2023-03-02T00:20:59.376Z,1002.42
2023-03-02T00:21:09.615Z,1002.42
2023-03-02T00:21:19.878Z,1002.41
2023-03-02T00:21:30.147Z,1002.41
2023-03-02T00:21:40.361Z,1002.42
2023-03-02T00:21:50.605Z,1002.42
2023-03-02T00:22:00.859Z,1002.42
2023-03-02T00:22:11.317Z,1002.42
2023-03-02T00:22:21.520Z,1002.43
2023-03-02T00:22:31.760Z,1002.43
2023-03-02T00:22:42.006Z,1002.44
2023-03-02T00:22:52.261Z,1002.44
2023-03-02T00:23:02.506Z,1002.45
2023-03-02T00:23:12.747Z,1002.45
2023-03-02T00:23:22.999Z,1002.46
2023-03-02T00:23:33.233Z,1002.46
2023-03-02T00:23:43.480Z,1002.46
2023-03-02T00:23:53.734Z,1002.47
2023-03-02T00:24:03.969Z,1002.47
2023-03-02T00:24:14.214Z,1002.47
2023-03-02T00:24:24.459Z,1002.47
2023-03-02T00:24:34.705Z,1002.47
2023-03-02T00:24:44.970Z,1002.48
2023-03-02T00:24:55.209Z,1002.48
2023-03-02T00:25:05.512Z,1002.48
2023-03-02T00:25:15.711Z,1002.48
2023-03-02T00:25:25.951Z,1002.48
2023-03-02T00:25:36.198Z,1002.49
2023-03-02T00:25:46.442Z,1002.49
2023-03-02T00:25:56.706Z,1002.49
2023-03-02T00:26:06.950Z,1002.50
2023-03-02T00:26:17.195Z,1002.50
2023-03-02T00:26:27.441Z,1002.50
2023-03-02T00:26:37.686Z,1002.50
2023-03-02T00:26:47.934Z,1002.51
2023-03-02T00:26:58.182Z,1002.51
2023-03-02T00:27:08.441Z,1002.51
2023-03-02T00:27:18.692Z,1002.52
2023-03-02T00:27:28.926Z,1002.51
2023-03-02T00:27:39.175Z,1002.51
2023-03-02T00:27:49.420Z,1002.51
2023-03-02T00:27:59.688Z,1002.51
2023-03-02T00:28:09.935Z,1002.51
2023-03-02T00:28:20.203Z,1002.51
2023-03-02T00:28:30.446Z,1002.51
2023-03-02T00:28:40.693Z,1002.50
2023-03-02T00:28:50.937Z,1002.50
2023-03-02T00:29:01.181Z,1002.50
2023-03-02T00:29:11.428Z,1002.50
2023-03-02T00:29:21.683Z,1002.50
2023-03-02T00:29:31.927Z,1002.50
2023-03-02T00:29:42.188Z,1002.50
2023-03-02T00:29:52.421Z,1002.50
2023-03-02T00:30:02.666Z,1002.50
2023-03-02T00:30:13.014Z,1002.50
2023-03-02T00:30:23.260Z,1002.51
2023-03-02T00:30:33.502Z,1002.50
2023-03-02T00:30:43.744Z,1002.51
2023-03-02T00:30:54.014Z,1002.50
2023-03-02T00:31:04.270Z,1002.51
2023-03-02T00:31:14.581Z,1002.51
2023-03-02T00:31:24.845Z,1002.51
2023-03-02T00:31:35.162Z,1002.51
2023-03-02T00:31:45.496Z,1002.51
2023-03-02T00:31:55.904Z,1002.51
2023-03-02T00:32:06.093Z,1002.51
2023-03-02T00:32:16.337Z,1002.50
2023-03-02T00:32:26.598Z,1002.51
2023-03-02T00:32:36.935Z,1002.50
2023-03-02T00:32:47.190Z,1002.50
2023-03-02T00:32:57.435Z,1002.50
2023-03-02T00:33:07.677Z,1002.50
2023-03-02T00:33:17.946Z,1002.50
2023-03-02T00:33:28.204Z,1002.49
2023-03-02T00:33:38.452Z,1002.49
2023-03-02T00:33:48.689Z,1002.49
2023-03-02T00:33:58.952Z,1002.49
2023-03-02T00:34:09.182Z,1002.48
2023-03-02T00:34:19.430Z,1002.49
2023-03-02T00:34:29.670Z,1002.48
2023-03-02T00:34:39.916Z,1002.49
2023-03-02T00:34:50.175Z,1002.48
2023-03-02T00:35:00.418Z,1002.48
2023-03-02T00:35:10.655Z,1002.48
2023-03-02T00:35:20.969Z,1002.48
2023-03-02T00:35:31.234Z,1002.48
2023-03-02T00:35:41.527Z,1002.49
2023-03-02T00:35:51.848Z,1002.49
2023-03-02T00:36:02.129Z,1002.49
2023-03-02T00:36:12.379Z,1002.49
2023-03-02T00:36:22.624Z,1002.49
2023-03-02T00:36:32.903Z,1002.50
2023-03-02T00:36:43.528Z,1002.50
2023-03-02T00:36:53.341Z,1002.50
2023-03-02T00:37:03.581Z,1002.50
2023-03-02T00:37:13.823Z,1002.50
2023-03-02T00:37:24.088Z,1002.50
2023-03-02T00:37:34.331Z,1002.50
2023-03-02T00:37:44.606Z,1002.49
2023-03-02T00:37:54.849Z,1002.50
2023-03-02T00:38:05.114Z,1002.50
2023-03-02T00:38:15.363Z,1002.50
2023-03-02T00:38:25.685Z,1002.50
2023-03-02T00:38:35.937Z,1002.50
2023-03-02T00:38:46.210Z,1002.50
2023-03-02T00:38:56.451Z,1002.50
2023-03-02T00:39:06.719Z,1002.50
2023-03-02T00:39:16.987Z,1002.51
2023-03-02T00:39:27.259Z,1002.51
2023-03-02T00:39:37.536Z,1002.51
2023-03-02T00:39:47.812Z,1002.51
2023-03-02T00:39:58.069Z,1002.51
2023-03-02T00:40:08.341Z,1002.51
2023-03-02T00:40:18.609Z,1002.51
2023-03-02T00:40:28.882Z,1002.51
2023-03-02T00:40:39.150Z,1002.51
2023-03-02T00:40:49.422Z,1002.51
2023-03-02T00:40:59.677Z,1002.51
2023-03-02T00:41:09.979Z,1002.51
2023-03-02T00:41:20.230Z,1002.51
2023-03-02T00:41:30.488Z,1002.52
2023-03-02T00:41:40.754Z,1002.52
2023-03-02T00:41:51.027Z,1002.51
2023-03-02T00:42:01.334Z,1002.51
2023-03-02T00:42:11.599Z,1002.51
2023-03-02T00:42:21.846Z,1002.51
2023-03-02T00:42:32.118Z,1002.51
2023-03-02T00:42:42.389Z,1002.51
2023-03-02T00:42:52.658Z,1002.51
2023-03-02T00:43:02.939Z,1002.51
2023-03-02T00:43:13.195Z,1002.51
2023-03-02T00:43:23.466Z,1002.51
2023-03-02T00:43:33.738Z,1002.51
2023-03-02T00:43:44.004Z,1002.51
2023-03-02T00:43:54.271Z,1002.51
2023-03-02T00:44:04.543Z,1002.51
2023-03-02T00:44:14.814Z,1002.51
2023-03-02T00:44:25.090Z,1002.51
2023-03-02T00:44:35.392Z,1002.51
2023-03-02T00:44:45.643Z,1002.51
2023-03-02T00:44:55.906Z,1002.51
2023-03-02T00:45:06.172Z,1002.51
2023-03-02T00:45:16.447Z,1002.51
2023-03-02T00:45:26.718Z,1002.51
2023-03-02T00:45:36.991Z,1002.51
2023-03-02T00:45:47.260Z,1002.52
2023-03-02T00:45:57.537Z,1002.52
2023-03-02T00:46:07.851Z,1002.52
2023-03-02T00:46:18.155Z,1002.53
2023-03-02T00:46:28.612Z,1002.53
2023-03-02T00:46:38.750Z,1002.53
2023-03-02T00:46:49.031Z,1002.53
2023-03-02T00:46:59.349Z,1002.53
2023-03-02T00:47:09.596Z,1002.53
2023-03-02T00:47:19.858Z,1002.53
2023-03-02T00:47:30.139Z,1002.53
2023-03-02T00:47:41.551Z,1002.53
2023-03-02T00:47:50.681Z,1002.53
2023-03-02T00:48:00.953Z,1002.53
2023-03-02T00:48:11.234Z,1002.53
2023-03-02T00:48:21.505Z,1002.53
2023-03-02T00:48:31.778Z,1002.53
2023-03-02T00:48:42.045Z,1002.52
2023-03-02T00:48:52.316Z,1002.53
2023-03-02T00:49:02.584Z,1002.52
2023-03-02T00:49:12.860Z,1002.52
2023-03-02T00:49:23.140Z,1002.52
2023-03-02T00:49:33.438Z,1002.52
2023-03-02T00:49:43.677Z,1002.52
2023-03-02T00:49:53.950Z,1002.52
2023-03-02T00:50:04.218Z,1002.52
2023-03-02T00:50:14.487Z,1002.52
2023-03-02T00:50:24.766Z,1002.52
2023-03-02T00:50:35.042Z,1002.52
2023-03-02T00:50:45.308Z,1002.52
2023-03-02T00:50:55.576Z,1002.52
2023-03-02T00:51:05.843Z,1002.52
2023-03-02T00:51:16.116Z,1002.53
2023-03-02T00:51:26.380Z,1002.53
2023-03-02T00:51:36.673Z,1002.53
2023-03-02T00:51:46.953Z,1002.53
2023-03-02T00:51:57.191Z,1002.53
2023-03-02T00:52:07.459Z,1002.53
2023-03-02T00:52:17.757Z,1002.53
2023-03-02T00:52:28.012Z,1002.53
2023-03-02T00:52:38.283Z,1002.53
2023-03-02T00:52:48.550Z,1002.53
2023-03-02T00:52:58.838Z,1002.53
2023-03-02T00:53:09.101Z,1002.53
2023-03-02T00:53:19.383Z,1002.53
2023-03-02T00:53:29.652Z,1002.53
2023-03-02T00:53:39.922Z,1002.53
2023-03-02T00:53:50.205Z,1002.53
2023-03-02T00:54:00.462Z,1002.52
2023-03-02T00:54:10.745Z,1002.52
2023-03-02T00:54:21.018Z,1002.52
2023-03-02T00:54:31.271Z,1002.52
2023-03-02T00:54:41.552Z,1002.52
2023-03-02T00:54:51.822Z,1002.52
2023-03-02T00:55:02.097Z,1002.52
2023-03-02T00:55:12.345Z,1002.52
2023-03-02T00:55:22.636Z,1002.51
2023-03-02T00:55:32.891Z,1002.51
2023-03-02T00:55:43.154Z,1002.51
2023-03-02T00:55:53.424Z,1002.51
2023-03-02T00:56:03.709Z,1002.50
2023-03-02T00:56:13.972Z,1002.51
2023-03-02T00:56:24.229Z,1002.50
2023-03-02T00:56:34.771Z,1002.50
2023-03-02T00:56:44.873Z,1002.50
2023-03-02T00:56:55.144Z,1002.50
2023-03-02T00:57:05.426Z,1002.50
2023-03-02T00:57:15.697Z,1002.50
2023-03-02T00:57:25.993Z,1002.50
2023-03-02T00:57:36.243Z,1002.50
2023-03-02T00:57:46.510Z,1002.50
2023-03-02T00:57:56.780Z,1002.50
2023-03-02T00:58:07.049Z,1002.50
2023-03-02T00:58:17.320Z,1002.50
2023-03-02T00:58:27.606Z,1002.49
2023-03-02T00:58:37.879Z,1002.49
2023-03-02T00:58:48.150Z,1002.48
2023-03-02T00:58:58.414Z,1002.48
2023-03-02T00:59:08.704Z,1002.48
2023-03-02T00:59:18.964Z,1002.47
2023-03-02T00:59:29.267Z,1002.47
2023-03-02T00:59:39.500Z,1002.48
2023-03-02T00:59:49.766Z,1002.47
2023-03-02T01:00:00.035Z,1002.47
2023-03-02T01:00:10.310Z,1002.47
2023-03-02T01:00:20.581Z,1002.47
2023-03-02T01:00:30.849Z,1002.47
2023-03-02T01:00:41.118Z,1002.47
2023-03-02T01:00:51.385Z,1002.47
2023-03-02T01:01:01.657Z,1002.47
2023-03-02T01:01:11.935Z,1002.47
2023-03-02T01:01:22.203Z,1002.47
2023-03-02T01:01:32.530Z,1002.47
2023-03-02T01:01:42.793Z,1002.47
2023-03-02T01:01:53.114Z,1002.47
2023-03-02T01:02:03.369Z,1002.47
2023-03-02T01:02:13.701Z,1002.47
2023-03-02T01:02:24.151Z,1002.47
2023-03-02T01:02:34.417Z,1002.46
2023-03-02T01:02:44.740Z,1002.47
2023-03-02T01:02:54.926Z,1002.46
2023-03-02T01:03:05.298Z,1002.46
2023-03-02T01:03:15.598Z,1002.46
2023-03-02T01:03:25.937Z,1002.46
2023-03-02T01:03:36.230Z,1002.46
2023-03-02T01:03:46.495Z,1002.46
2023-03-02T01:03:56.765Z,1002.46
2023-03-02T01:04:07.033Z,1002.45
2023-03-02T01:04:17.309Z,1002.45
2023-03-02T01:04:27.582Z,1002.45
2023-03-02T01:04:37.847Z,1002.45
2023-03-02T01:04:48.137Z,1002.45
2023-03-02T01:04:58.402Z,1002.45
2023-03-02T01:05:08.664Z,1002.45
2023-03-02T01:05:18.940Z,1002.45
2023-03-02T01:05:29.208Z,1002.44
2023-03-02T01:05:39.482Z,1002.44
2023-03-02T01:05:49.746Z,1002.44
2023-03-02T01:06:00.024Z,1002.44
2023-03-02T01:06:10.459Z,1002.44
2023-03-02T01:06:20.705Z,1002.43
2023-03-02T01:06:31.270Z,1002.44
2023-03-02T01:06:41.302Z,1002.44
2023-03-02T01:06:51.548Z,1002.44
2023-03-02T01:07:01.817Z,1002.44
2023-03-02T01:07:12.093Z,1002.44
2023-03-02T01:07:22.362Z,1002.44
2023-03-02T01:07:32.628Z,1002.44
2023-03-02T01:07:42.909Z,1002.45
2023-03-02T01:07:53.166Z,1002.45
2023-03-02T01:08:03.430Z,1002.45
2023-03-02T01:08:13.703Z,1002.45
2023-03-02T01:08:23.984Z,1002.45
2023-03-02T01:08:34.253Z,1002.45
2023-03-02T01:08:44.543Z,1002.45
2023-03-02T01:08:54.808Z,1002.45
2023-03-02T01:09:05.075Z,1002.45
2023-03-02T01:09:15.345Z,1002.45
2023-03-02T01:09:25.619Z,1002.45
2023-03-02T01:09:35.884Z,1002.45
2023-03-02T01:09:46.170Z,1002.45
2023-03-02T01:09:56.466Z,1002.45
2023-03-02T01:10:06.725Z,1002.44
2023-03-02T01:10:16.971Z,1002.44
2023-03-02T01:10:27.244Z,1002.44
2023-03-02T01:10:37.520Z,1002.44
2023-03-02T01:10:47.791Z,1002.44
2023-03-02T01:10:58.059Z,1002.43
2023-03-02T01:11:08.325Z,1002.42
2023-03-02T01:11:18.608Z,1002.42
2023-03-02T01:11:28.873Z,1002.42
2023-03-02T01:11:39.174Z,1002.41
2023-03-02T01:11:49.439Z,1002.41
2023-03-02T01:11:59.710Z,1002.40
2023-03-02T01:12:09.984Z,1002.40
2023-03-02T01:12:20.247Z,1002.40
2023-03-02T01:12:30.520Z,1002.40
2023-03-02T01:12:40.793Z,1002.39
2023-03-02T01:12:51.067Z,1002.40
2023-03-02T01:13:01.336Z,1002.39
2023-03-02T01:13:11.601Z,1002.39
2023-03-02T01:13:21.886Z,1002.39
2023-03-02T01:13:32.160Z,1002.39
2023-03-02T01:13:42.425Z,1002.39
2023-03-02T01:13:52.710Z,1002.38
2023-03-02T01:14:02.965Z,1002.38
2023-03-02T01:14:13.241Z,1002.38
2023-03-02T01:14:23.507Z,1002.38
2023-03-02T01:14:33.782Z,1002.37
2023-03-02T01:14:44.048Z,1002.37
2023-03-02T01:14:54.314Z,1002.37
2023-03-02T01:15:04.585Z,1002.36
2023-03-02T01:15:14.871Z,1002.36
2023-03-02T01:15:25.124Z,1002.36
2023-03-02T01:15:35.398Z,1002.36
2023-03-02T01:15:45.728Z,1002.35
2023-03-02T01:15:56.038Z,1002.35
2023-03-02T01:16:06.330Z,1002.35
2023-03-02T01:16:16.624Z,1002.34
2023-03-02T01:16:26.920Z,1002.34
2023-03-02T01:16:37.262Z,1002.34
2023-03-02T01:16:47.545Z,1002.34
2023-03-02T01:16:57.815Z,1002.33
2023-03-02T01:17:08.092Z,1002.34
2023-03-02T01:17:18.376Z,1002.33
2023-03-02T01:17:28.634Z,1002.33
2023-03-02T01:17:38.906Z,1002.33
2023-03-02T01:17:49.173Z,1002.33
2023-03-02T01:17:59.445Z,1002.33
2023-03-02T01:18:11.566Z,1002.33
2023-03-02T01:18:19.969Z,1002.33
2023-03-02T01:18:30.231Z,1002.33
2023-03-02T01:18:40.500Z,1002.33
2023-03-02T01:18:50.773Z,1002.32
2023-03-02T01:19:01.040Z,1002.33
2023-03-02T01:19:11.306Z,1002.33
2023-03-02T01:19:21.573Z,1002.32
2023-03-02T01:19:31.844Z,1002.33
2023-03-02T01:19:42.153Z,1002.32
2023-03-02T01:19:52.395Z,1002.33
2023-03-02T01:20:02.664Z,1002.33
2023-03-02T01:20:12.935Z,1002.32
2023-03-02T01:20:23.214Z,1002.32
2023-03-02T01:20:33.478Z,1002.32
2023-03-02T01:20:43.741Z,1002.32
2023-03-02T01:20:54.009Z,1002.32
2023-03-02T01:21:04.278Z,1002.31
2023-03-02T01:21:14.570Z,1002.31
2023-03-02T01:21:24.821Z,1002.31
2023-03-02T01:21:35.102Z,1002.31
2023-03-02T01:21:45.388Z,1002.31
2023-03-02T01:21:55.631Z,1002.31
2023-03-02T01:22:05.905Z,1002.30
2023-03-02T01:22:16.172Z,1002.30
2023-03-02T01:22:26.443Z,1002.30
2023-03-02T01:22:36.718Z,1002.30
2023-03-02T01:22:46.979Z,1002.30
2023-03-02T01:22:57.249Z,1002.30
2023-03-02T01:23:07.520Z,1002.30
2023-03-02T01:23:17.791Z,1002.29
2023-03-02T01:23:28.082Z,1002.29
2023-03-02T01:23:38.350Z,1002.29
2023-03-02T01:23:48.631Z,1002.29
2023-03-02T01:23:58.892Z,1002.29
2023-03-02T01:24:09.161Z,1002.29
2023-03-02T01:24:19.433Z,1002.28
2023-03-02T01:24:29.714Z,1002.28
2023-03-02T01:24:39.981Z,1002.28
2023-03-02T01:24:50.256Z,1002.27
2023-03-02T01:25:00.544Z,1002.28
2023-03-02T01:25:10.782Z,1002.28
2023-03-02T01:25:21.049Z,1002.28
2023-03-02T01:25:31.328Z,1002.27
2023-03-02T01:25:41.603Z,1002.27
2023-03-02T01:25:51.859Z,1002.27
2023-03-02T01:26:02.129Z,1002.27
2023-03-02T01:26:12.399Z,1002.27
2023-03-02T01:26:22.680Z,1002.27
2023-03-02T01:26:33.413Z,1002.27
2023-03-02T01:26:43.316Z,1002.26
2023-03-02T01:26:53.584Z,1002.26
2023-03-02T01:27:03.855Z,1002.26
2023-03-02T01:27:14.142Z,1002.26
2023-03-02T01:27:24.435Z,1002.26
2023-03-02T01:27:34.673Z,1002.26
2023-03-02T01:27:44.946Z,1002.26
2023-03-02T01:27:55.212Z,1002.26
2023-03-02T01:28:05.494Z,1002.26
2023-03-02T01:28:15.752Z,1002.26
2023-03-02T01:28:26.041Z,1002.26
2023-03-02T01:28:36.352Z,1002.26
2023-03-02T01:28:46.610Z,1002.26
2023-03-02T01:28:56.880Z,1002.26
2023-03-02T01:29:07.152Z,1002.26
2023-03-02T01:29:17.429Z,1002.26
2023-03-02T01:29:27.692Z,1002.26
2023-03-02T01:29:37.963Z,1002.25
2023-03-02T01:29:48.230Z,1002.25
2023-03-02T01:29:58.496Z,1002.25
2023-03-02T01:30:08.785Z,1002.26
2023-03-02T01:30:19.043Z,1002.25
2023-03-02T01:30:29.309Z,1002.25
2023-03-02T01:30:39.580Z,1002.25
2023-03-02T01:30:49.841Z,1002.25
2023-03-02T01:31:00.143Z,1002.24
2023-03-02T01:31:10.455Z,1002.24
2023-03-02T01:31:20.706Z,1002.25
2023-03-02T01:31:31.024Z,1002.24
2023-03-02T01:31:41.436Z,1002.25
2023-03-02T01:31:51.864Z,1002.24
2023-03-02T01:32:02.192Z,1002.24
2023-03-02T01:32:12.386Z,1002.24
2023-03-02T01:32:22.667Z,1002.23
2023-03-02T01:32:32.975Z,1002.23
2023-03-02T01:32:43.249Z,1002.23
2023-03-02T01:32:53.517Z,1002.23
2023-03-02T01:33:03.786Z,1002.22
2023-03-02T01:33:14.052Z,1002.22
2023-03-02T01:33:24.341Z,1002.22
2023-03-02T01:33:34.610Z,1002.21
2023-03-02T01:33:44.870Z,1002.21
2023-03-02T01:33:55.138Z,1002.21
2023-03-02T01:34:05.448Z,1002.21
2023-03-02T01:34:15.678Z,1002.20
2023-03-02T01:34:25.949Z,1002.20
2023-03-02T01:34:36.217Z,1002.20
2023-03-02T01:34:46.496Z,1002.20
2023-03-02T01:34:56.786Z,1002.20
2023-03-02T01:35:07.049Z,1002.20
2023-03-02T01:35:17.315Z,1002.19
2023-03-02T01:35:27.601Z,1002.19
2023-03-02T01:35:37.996Z,1002.19
2023-03-02T01:35:48.345Z,1002.19
2023-03-02T01:35:58.730Z,1002.18
2023-03-02T01:36:08.964Z,1002.18
2023-03-02T01:36:19.236Z,1002.18
2023-03-02T01:36:29.557Z,1002.17
2023-03-02T01:36:39.820Z,1002.17
2023-03-02T01:36:50.139Z,1002.16
2023-03-02T01:37:00.380Z,1002.16
2023-03-02T01:37:10.658Z,1002.15
2023-03-02T01:37:20.957Z,1002.15
2023-03-02T01:37:31.199Z,1002.14
2023-03-02T01:37:41.458Z,1002.14
2023-03-02T01:37:51.728Z,1002.14
2023-03-02T01:38:02.005Z,1002.14
2023-03-02T01:38:12.302Z,1002.13
2023-03-02T01:38:22.656Z,1002.13
2023-03-02T01:38:32.997Z,1002.13
2023-03-02T01:38:43.296Z,1002.13
2023-03-02T01:38:53.610Z,1002.13
2023-03-02T01:39:03.840Z,1002.13
2023-03-02T01:39:14.112Z,1002.13
2023-03-02T01:39:24.379Z,1002.12
2023-03-02T01:39:34.652Z,1002.12
2023-03-02T01:39:44.920Z,1002.12
2023-03-02T01:39:55.202Z,1002.12
2023-03-02T01:40:05.467Z,1002.12
2023-03-02T01:40:15.739Z,1002.12
2023-03-02T01:40:26.003Z,1002.12
2023-03-02T01:40:36.312Z,1002.12
2023-03-02T01:40:46.578Z,1002.12
2023-03-02T01:40:56.859Z,1002.11
2023-03-02T01:41:07.120Z,1002.11
2023-03-02T01:41:17.396Z,1002.11
2023-03-02T01:41:27.671Z,1002.11
2023-03-02T01:41:37.937Z,1002.10
2023-03-02T01:41:48.200Z,1002.10
2023-03-02T01:41:58.482Z,1002.10
2023-03-02T01:42:08.740Z,1002.10
2023-03-02T01:42:19.007Z,1002.09
2023-03-02T01:42:29.274Z,1002.09
2023-03-02T01:42:39.550Z,1002.09
2023-03-02T01:42:49.811Z,1002.09
2023-03-02T01:43:00.108Z,1002.09
2023-03-02T01:43:10.350Z,1002.08
2023-03-02T01:43:20.623Z,1002.08
2023-03-02T01:43:30.913Z,1002.08
2023-03-02T01:43:41.192Z,1002.08
2023-03-02T01:43:51.462Z,1002.08
2023-03-02T01:44:01.728Z,1002.08
2023-03-02T01:44:11.995Z,1002.07
2023-03-02T01:44:22.265Z,1002.07
2023-03-02T01:44:32.543Z,1002.07
2023-03-02T01:44:42.860Z,1002.06
2023-03-02T01:44:53.091Z,1002.06
2023-03-02T01:45:03.392Z,1002.06
2023-03-02T01:45:13.649Z,1002.05
2023-03-02T01:45:23.964Z,1002.05
2023-03-02T01:45:34.232Z,1002.04
2023-03-02T01:45:44.593Z,1002.04
2023-03-02T01:45:54.926Z,1002.04
2023-03-02T01:46:05.328Z,1002.03
2023-03-02T01:46:15.634Z,1002.03
2023-03-02T01:46:25.868Z,1002.03
2023-03-02T01:46:36.135Z,1002.02
2023-03-02T01:46:46.413Z,1002.02
2023-03-02T01:46:56.678Z,1002.02
2023-03-02T01:47:06.948Z,1002.02
2023-03-02T01:47:17.220Z,1002.02
2023-03-02T01:47:27.489Z,1002.02
2023-03-02T01:47:37.755Z,1002.02
2023-03-02T01:47:48.029Z,1002.02
2023-03-02T01:47:58.298Z,1002.02
2023-03-02T01:48:08.564Z,1002.02
2023-03-02T01:48:18.838Z,1002.02
2023-03-02T01:48:29.108Z,1002.02
2023-03-02T01:48:39.435Z,1002.02
2023-03-02T01:48:49.687Z,1002.02
2023-03-02T01:48:59.965Z,1002.02
2023-03-02T01:49:10.249Z,1002.02
2023-03-02T01:49:20.509Z,1002.01
2023-03-02T01:49:30.777Z,1002.01
2023-03-02T01:49:41.046Z,1002.01
2023-03-02T01:49:51.315Z,1002.01
2023-03-02T01:50:01.637Z,1002.01
2023-03-02T01:50:11.875Z,1002.01
2023-03-02T01:50:22.145Z,1002.01
2023-03-02T01:50:32.411Z,1002.01
2023-03-02T01:50:42.702Z,1002.00
2023-03-02T01:50:52.965Z,1002.01
2023-03-02T01:51:03.248Z,1002.00
2023-03-02T01:51:13.497Z,1002.01
2023-03-02T01:51:23.790Z,1002.01
2023-03-02T01:51:34.034Z,1002.01
2023-03-02T01:51:44.313Z,1002.01
2023-03-02T01:51:54.597Z,1002.01
2023-03-02T01:52:04.841Z,1002.01
2023-03-02T01:52:15.120Z,1002.00
2023-03-02T01:52:25.405Z,1002.01
2023-03-02T01:52:35.652Z,1002.01
2023-03-02T01:52:45.918Z,1002.01
2023-03-02T01:52:56.187Z,1002.01
2023-03-02T01:53:06.460Z,1002.01
2023-03-02T01:53:16.728Z,1002.01
2023-03-02T01:53:26.998Z,1002.01
2023-03-02T01:53:37.292Z,1002.01
2023-03-02T01:53:47.589Z,1002.01
2023-03-02T01:53:57.852Z,1002.02
2023-03-02T01:54:08.119Z,1002.01
2023-03-02T01:54:18.388Z,1002.01
2023-03-02T01:54:28.656Z,1002.01
2023-03-02T01:54:38.928Z,1002.01
2023-03-02T01:54:49.196Z,1002.01
2023-03-02T01:54:59.469Z,1002.01
2023-03-02T01:55:09.739Z,1002.01
2023-03-02T01:55:20.001Z,1002.00
2023-03-02T01:55:30.275Z,1001.99
2023-03-02T01:55:40.545Z,1001.99
2023-03-02T01:55:50.814Z,1001.99
2023-03-02T01:56:01.076Z,1001.98
2023-03-02T01:56:11.356Z,1001.98
2023-03-02T01:56:21.621Z,1001.98
2023-03-02T01:56:32.167Z,1001.98
2023-03-02T01:56:42.176Z,1001.97
2023-03-02T01:56:52.466Z,1001.97
2023-03-02T01:57:02.718Z,1001.96
2023-03-02T01:57:12.993Z,1001.96
2023-03-02T01:57:23.256Z,1001.96
2023-03-02T01:57:33.521Z,1001.95
2023-03-02T01:57:44.029Z,1001.95
2023-03-02T01:57:54.058Z,1001.95
2023-03-02T01:58:04.323Z,1001.94
2023-03-02T01:58:14.586Z,1001.94
2023-03-02T01:58:24.852Z,1001.94
2023-03-02T01:58:35.137Z,1001.94
2023-03-02T01:58:45.405Z,1001.94
2023-03-02T01:58:55.674Z,1001.93
2023-03-02T01:59:05.950Z,1001.94
2023-03-02T01:59:16.243Z,1001.93
2023-03-02T01:59:26.488Z,1001.93
2023-03-02T01:59:36.758Z,1001.94
2023-03-02T01:59:47.075Z,1001.94
2023-03-02T01:59:57.300Z,1001.94
2023-03-02T02:00:07.566Z,1001.94
2023-03-02T02:00:17.812Z,1001.94
2023-03-02T02:00:28.081Z,1001.94
2023-03-02T02:00:38.407Z,1001.94
2023-03-02T02:00:48.694Z,1001.94
2023-03-02T02:00:58.988Z,1001.93
2023-03-02T02:01:09.368Z,1001.94
2023-03-02T02:01:19.656Z,1001.93
2023-03-02T02:01:30.023Z,1001.93
2023-03-02T02:01:40.308Z,1001.93
2023-03-02T02:01:50.600Z,1001.94
2023-03-02T02:02:00.850Z,1001.93
2023-03-02T02:02:11.115Z,1001.93
2023-03-02T02:02:21.390Z,1001.93
2023-03-02T02:02:31.666Z,1001.93
2023-03-02T02:02:41.941Z,1001.93
2023-03-02T02:02:52.200Z,1001.93
2023-03-02T02:03:02.466Z,1001.92
2023-03-02T02:03:12.782Z,1001.92
2023-03-02T02:03:23.033Z,1001.92
2023-03-02T02:03:33.306Z,1001.92
2023-03-02T02:03:43.614Z,1001.92
2023-03-02T02:03:53.903Z,1001.92
2023-03-02T02:04:04.280Z,1001.93
2023-03-02T02:04:14.643Z,1001.92